createdAt,value
2019-04-04T00:01:03.000Z,11.77
2019-04-04T00:03:34.804Z,12.33
2019-04-04T00:06:06.670Z,14.83
2019-04-04T00:08:38.399Z,12.40
2019-04-04T00:11:11.125Z,17.67
2019-04-04T00:13:42.880Z,14.53
2019-04-04T00:16:16.122Z,14.90
2019-04-04T00:18:48.172Z,11.23
2019-04-04T00:21:19.902Z,14.05
2019-04-04T00:23:51.629Z,14.80
2019-04-04T00:26:23.443Z,14.03
2019-04-04T00:28:55.175Z,11.10
2019-04-04T00:31:27.101Z,10.48
2019-04-04T00:33:58.892Z,5.33
2019-04-04T00:36:33.826Z,9.23
2019-04-04T00:39:09.089Z,9.37
2019-04-04T00:41:39.940Z,9.03
2019-04-04T00:44:11.837Z,11.10
2019-04-04T00:46:43.643Z,9.83
2019-04-04T00:49:15.368Z,6.70
2019-04-04T00:51:47.604Z,9.70
2019-04-04T00:54:19.468Z,9.70
2019-04-04T00:56:51.232Z,9.03
2019-04-04T00:59:23.669Z,9.40
2019-04-04T01:01:56.999Z,10.37
2019-04-04T01:04:30.815Z,11.20
2019-04-04T01:07:04.835Z,10.53
2019-04-04T01:09:36.386Z,11.03
2019-04-04T01:12:08.238Z,10.53
2019-04-04T01:14:40.943Z,10.63
2019-04-04T01:17:12.756Z,8.70
2019-04-04T01:19:44.561Z,9.80
2019-04-04T01:22:16.298Z,8.98
2019-04-04T01:24:48.065Z,10.77
2019-04-04T01:27:20.115Z,7.28
2019-04-04T01:29:51.896Z,9.13
2019-04-04T01:32:23.733Z,9.00
2019-04-04T01:34:55.501Z,7.83
2019-04-04T01:37:27.876Z,7.28
2019-04-04T01:40:02.253Z,6.53
2019-04-04T01:42:34.014Z,7.80
2019-04-04T01:45:06.693Z,7.40
2019-04-04T01:47:38.785Z,7.50
2019-04-04T01:50:10.758Z,7.40
2019-04-04T01:52:42.502Z,7.50
2019-04-04T01:55:14.364Z,7.03
2019-04-04T01:57:46.240Z,7.50
2019-04-04T02:00:18.491Z,8.45
2019-04-04T02:02:51.896Z,7.63
2019-04-04T02:05:26.695Z,7.22
2019-04-04T02:07:58.858Z,9.37
2019-04-04T02:10:34.498Z,7.83
2019-04-04T02:13:05.295Z,8.50
2019-04-04T02:15:37.107Z,8.53
2019-04-04T02:18:08.839Z,10.40
2019-04-04T02:20:40.848Z,10.30
2019-04-04T02:23:12.596Z,10.13
2019-04-04T02:25:44.318Z,9.67
2019-04-04T02:28:16.079Z,9.60
2019-04-04T02:30:48.489Z,9.65
2019-04-04T02:33:21.002Z,9.35
2019-04-04T02:35:52.740Z,9.90
2019-04-04T02:38:28.100Z,9.63
2019-04-04T02:40:58.729Z,9.90
2019-04-04T02:43:30.524Z,9.80
2019-04-04T02:46:02.335Z,9.27
2019-04-04T02:48:34.034Z,9.10
2019-04-04T02:51:07.979Z,9.47
2019-04-04T02:53:39.218Z,11.37
2019-04-04T02:56:11.263Z,9.90
2019-04-04T02:58:45.867Z,11.07
2019-04-04T03:01:16.603Z,10.10
2019-04-04T03:03:49.142Z,10.00
2019-04-04T03:06:23.881Z,10.03
2019-04-04T03:08:54.759Z,10.53
2019-04-04T03:11:26.811Z,9.95
2019-04-04T03:14:03.471Z,9.73
2019-04-04T03:16:32.481Z,10.00
2019-04-04T03:19:04.353Z,10.57
2019-04-04T03:21:36.211Z,9.90
2019-04-04T03:24:08.086Z,9.90
2019-04-04T03:26:40.209Z,9.13
2019-04-04T03:29:12.056Z,9.70
2019-04-04T03:31:43.930Z,9.60
2019-04-04T03:34:15.885Z,8.78
2019-04-04T03:36:47.714Z,9.57
2019-04-04T03:39:20.475Z,10.03
2019-04-04T03:41:52.501Z,9.30
2019-04-04T03:44:24.350Z,9.30
2019-04-04T03:46:56.104Z,8.80
2019-04-04T03:49:27.909Z,8.45
2019-04-04T03:51:59.708Z,9.23
2019-04-04T03:54:31.531Z,8.90
2019-04-04T03:57:03.438Z,8.67
2019-04-04T03:59:35.226Z,8.60
2019-04-04T04:02:07.026Z,11.90
2019-04-04T04:04:38.778Z,9.27
2019-04-04T04:07:13.822Z,8.50
2019-04-04T04:09:44.694Z,8.48
2019-04-04T04:12:16.391Z,8.40
2019-04-04T04:14:48.106Z,8.63
2019-04-04T04:17:19.801Z,9.18
2019-04-04T04:19:51.528Z,8.30
2019-04-04T04:22:23.222Z,8.33
2019-04-04T04:24:55.977Z,8.37
2019-04-04T04:27:27.681Z,7.90
2019-04-04T04:30:02.074Z,8.57
2019-04-04T04:32:37.019Z,8.67
2019-04-04T04:35:08.615Z,8.37
2019-04-04T04:37:40.177Z,8.30
2019-04-04T04:40:15.146Z,8.53
2019-04-04T04:42:47.088Z,8.07
2019-04-04T04:45:18.791Z,7.27
2019-04-04T04:47:50.496Z,8.87
2019-04-04T04:50:22.260Z,7.70
2019-04-04T04:52:53.983Z,8.27
2019-04-04T04:55:27.211Z,8.50
2019-04-04T04:57:59.499Z,8.50
2019-04-04T05:00:31.247Z,8.33
2019-04-04T05:03:03.015Z,9.37
2019-04-04T05:05:34.725Z,8.77
2019-04-04T05:08:09.692Z,8.60
2019-04-04T05:10:39.802Z,8.67
2019-04-04T05:13:12.071Z,11.80
2019-04-04T05:15:43.769Z,33.03
2019-04-04T05:18:16.323Z,15.80
2019-04-04T05:20:48.916Z,10.43
2019-04-04T05:23:20.636Z,7.90
2019-04-04T05:25:54.241Z,8.20
2019-04-04T05:28:25.787Z,6.40
2019-04-04T05:30:57.486Z,10.63
2019-04-04T05:33:31.536Z,9.05
2019-04-04T05:36:05.003Z,14.53
2019-04-04T05:38:36.031Z,9.57
2019-04-04T05:41:07.789Z,9.13
2019-04-04T05:43:39.806Z,8.23
2019-04-04T05:46:12.196Z,8.80
2019-04-04T05:48:43.902Z,8.17
2019-04-04T05:51:16.043Z,8.58
2019-04-04T05:53:47.793Z,8.13
2019-04-04T05:56:19.520Z,9.00
2019-04-04T05:58:53.139Z,8.57
2019-04-04T06:01:24.723Z,7.40
2019-04-04T06:03:56.453Z,8.50
2019-04-04T06:06:28.246Z,8.75
2019-04-04T06:09:00.279Z,8.00
2019-04-04T06:11:31.952Z,8.50
2019-04-04T06:14:04.170Z,8.03
2019-04-04T06:16:35.868Z,7.67
2019-04-04T06:19:08.023Z,7.60
2019-04-04T06:21:39.729Z,10.33
2019-04-04T06:24:11.816Z,7.83
2019-04-04T06:26:52.272Z,7.90
2019-04-04T06:29:23.971Z,7.35
2019-04-04T06:31:55.774Z,7.23
2019-04-04T06:34:27.454Z,7.08
2019-04-04T06:36:59.180Z,7.63
2019-04-04T06:39:31.171Z,7.80
2019-04-04T06:42:03.266Z,8.77
2019-04-04T06:44:36.724Z,7.63
2019-04-04T06:47:08.471Z,8.13
2019-04-04T06:49:40.256Z,7.67
2019-04-04T06:52:11.957Z,7.77
2019-04-04T06:54:43.644Z,7.43
2019-04-04T06:57:15.616Z,8.03
2019-04-04T06:59:47.303Z,7.50
2019-04-04T07:02:19.000Z,7.78
2019-04-04T07:04:50.692Z,9.00
2019-04-04T07:07:22.479Z,8.60
2019-04-04T07:09:54.248Z,8.37
2019-04-04T07:12:28.384Z,9.70
2019-04-04T07:14:59.780Z,9.43
2019-04-04T07:17:31.783Z,7.37
2019-04-04T07:20:03.610Z,9.30
2019-04-04T07:22:35.395Z,8.90
2019-04-04T07:25:07.843Z,9.17
2019-04-04T07:27:39.890Z,9.17
2019-04-04T07:30:15.272Z,8.50
2019-04-04T07:32:46.372Z,9.57
2019-04-04T07:35:20.929Z,7.50
2019-04-04T07:37:55.265Z,8.73
2019-04-04T07:40:24.857Z,8.00
2019-04-04T07:42:56.544Z,10.30
2019-04-04T07:45:28.311Z,10.05
2019-04-04T07:48:00.007Z,10.03
2019-04-04T07:50:31.716Z,8.70
2019-04-04T07:53:04.821Z,8.47
2019-04-04T07:55:40.135Z,7.23
2019-04-04T07:58:11.887Z,8.47
2019-04-04T08:00:43.578Z,13.60
2019-04-04T08:03:15.656Z,7.17
2019-04-04T08:05:47.349Z,7.20
2019-04-04T08:08:19.039Z,7.03
2019-04-04T08:10:50.803Z,7.43
2019-04-04T08:13:22.509Z,8.93
2019-04-04T08:15:54.548Z,10.17
2019-04-04T08:18:26.257Z,6.95
2019-04-04T08:20:58.116Z,7.33
2019-04-04T08:23:29.839Z,6.67
2019-04-04T08:26:01.892Z,6.37
2019-04-04T08:28:33.576Z,6.83
2019-04-04T08:31:05.291Z,8.13
2019-04-04T08:33:37.061Z,8.17
2019-04-04T08:36:08.903Z,7.28
2019-04-04T08:38:40.741Z,6.27
2019-04-04T08:41:12.426Z,6.67
2019-04-04T08:43:44.690Z,6.00
2019-04-04T08:46:16.459Z,5.92
2019-04-04T08:48:48.149Z,8.70
2019-04-04T08:51:19.846Z,5.92
2019-04-04T08:53:51.641Z,6.43
2019-04-04T08:56:23.401Z,6.55
2019-04-04T08:58:55.379Z,6.60
2019-04-04T09:01:27.218Z,7.75
2019-04-04T09:03:58.969Z,6.13
2019-04-04T09:06:30.722Z,8.77
2019-04-04T09:09:03.880Z,6.13
2019-04-04T09:11:35.739Z,6.17
2019-04-04T09:14:07.517Z,8.77
2019-04-04T09:16:39.199Z,7.67
2019-04-04T09:19:11.802Z,9.45
2019-04-04T09:21:43.516Z,8.33
2019-04-04T09:24:15.226Z,6.87
2019-04-04T09:26:46.926Z,6.53
2019-04-04T09:29:18.628Z,12.37
2019-04-04T09:31:50.339Z,10.67
2019-04-04T09:34:22.118Z,7.60
2019-04-04T09:36:53.807Z,5.50
2019-04-04T09:39:25.507Z,7.20
2019-04-04T09:41:57.387Z,7.20
2019-04-04T09:44:29.077Z,6.25
2019-04-04T09:47:05.714Z,5.10
2019-04-04T09:49:35.347Z,8.10
2019-04-04T09:52:07.124Z,5.83
2019-04-04T09:54:38.879Z,6.83
2019-04-04T09:57:11.498Z,6.78
2019-04-04T09:59:43.212Z,6.77
2019-04-04T10:02:14.918Z,6.60
2019-04-04T10:04:46.792Z,7.10
2019-04-04T10:07:18.506Z,7.10
2019-04-04T10:09:50.405Z,6.47
2019-04-04T10:12:22.453Z,5.92
2019-04-04T10:14:54.144Z,7.03
2019-04-04T10:17:25.832Z,11.27
2019-04-04T10:19:57.596Z,5.43
2019-04-04T10:22:29.583Z,6.55
2019-04-04T10:25:01.743Z,6.77
2019-04-04T10:27:33.456Z,5.70
2019-04-04T10:30:06.241Z,7.20
2019-04-04T10:32:37.946Z,6.80
2019-04-04T10:35:10.145Z,4.50
2019-04-04T10:37:42.177Z,6.13
2019-04-04T10:40:14.073Z,6.23
2019-04-04T10:42:45.771Z,6.40
2019-04-04T10:45:17.662Z,6.67
2019-04-04T10:47:49.428Z,5.63
2019-04-04T10:50:21.201Z,5.90
2019-04-04T10:52:52.984Z,6.12
2019-04-04T10:55:24.733Z,5.58
2019-04-04T10:57:56.453Z,3.80
2019-04-04T11:00:28.295Z,4.92
2019-04-04T11:03:00.065Z,4.58
2019-04-04T11:05:31.763Z,5.60
2019-04-04T11:08:03.780Z,5.23
2019-04-04T11:10:35.550Z,6.03
2019-04-04T11:13:07.628Z,7.50
2019-04-04T11:15:39.310Z,5.93
2019-04-04T11:18:12.137Z,3.37
2019-04-04T11:20:43.814Z,6.60
2019-04-04T11:23:16.498Z,6.37
2019-04-04T11:25:49.152Z,7.73
2019-04-04T11:28:20.919Z,6.42
2019-04-04T11:30:52.677Z,6.63
2019-04-04T11:33:24.445Z,6.80
2019-04-04T11:35:56.150Z,7.10
2019-04-04T11:38:27.874Z,5.63
2019-04-04T11:40:59.909Z,5.70
2019-04-04T11:43:31.642Z,5.77
2019-04-04T11:46:03.398Z,6.27
2019-04-04T11:48:35.085Z,7.20
2019-04-04T11:51:07.028Z,6.87
2019-04-04T11:53:38.754Z,5.33
2019-04-04T11:56:11.110Z,6.37
2019-04-04T11:58:43.116Z,2.77
2019-04-04T12:01:15.178Z,5.20
2019-04-04T12:03:46.876Z,4.17
2019-04-04T12:06:18.574Z,3.27
2019-04-04T12:08:50.286Z,5.78
2019-04-04T12:11:22.830Z,6.00
2019-04-04T12:13:54.900Z,5.60
2019-04-04T12:16:26.575Z,3.02
2019-04-04T12:18:58.264Z,5.83
2019-04-04T12:21:29.949Z,6.63
2019-04-04T12:24:01.725Z,6.67
2019-04-04T12:26:33.392Z,3.53
2019-04-04T12:29:05.151Z,5.63
2019-04-04T12:31:36.828Z,4.43
2019-04-04T12:34:08.529Z,3.80
2019-04-04T12:36:40.500Z,5.57
2019-04-04T12:39:12.193Z,6.20
2019-04-04T12:41:43.876Z,5.70
2019-04-04T12:44:15.584Z,6.50
2019-04-04T12:46:47.255Z,5.70
2019-04-04T12:49:18.942Z,3.87
2019-04-04T12:51:51.261Z,3.50
2019-04-04T12:54:22.962Z,5.70
2019-04-04T12:56:54.724Z,5.93
2019-04-04T12:59:26.425Z,6.73
2019-04-04T13:01:58.128Z,4.77
2019-04-04T13:04:31.741Z,6.77
2019-04-04T13:07:03.642Z,6.10
2019-04-04T13:09:35.335Z,2.93
2019-04-04T13:12:07.377Z,5.60
2019-04-04T13:14:39.441Z,7.00
2019-04-04T13:17:11.705Z,4.57
2019-04-04T13:19:43.656Z,2.87
2019-04-04T13:22:15.404Z,3.90
2019-04-04T13:24:47.194Z,6.33
2019-04-04T13:27:18.978Z,6.22
2019-04-04T13:29:50.662Z,4.23
2019-04-04T13:32:22.483Z,5.58
2019-04-04T13:34:59.418Z,5.43
2019-04-04T13:37:27.926Z,6.97
2019-04-04T13:39:59.641Z,4.63
2019-04-04T13:42:31.317Z,4.87
2019-04-04T13:45:03.513Z,6.03
2019-04-04T13:47:38.283Z,5.63
2019-04-04T13:50:12.298Z,4.60
2019-04-04T13:52:42.863Z,6.50
2019-04-04T13:55:14.704Z,5.27
2019-04-04T13:57:47.592Z,3.57
2019-04-04T14:00:21.872Z,3.70
2019-04-04T14:02:53.559Z,5.62
2019-04-04T14:05:25.354Z,6.42
2019-04-04T14:08:00.310Z,4.93
2019-04-04T14:10:30.477Z,3.73
2019-04-04T14:13:02.235Z,2.93
2019-04-04T14:15:34.004Z,2.73
2019-04-04T14:18:22.174Z,3.57
2019-04-04T14:21:03.565Z,4.20
2019-04-04T14:23:29.643Z,2.33
2019-04-04T14:26:01.422Z,1.70
2019-04-04T14:28:33.188Z,3.87
2019-04-04T14:31:04.959Z,3.50
2019-04-04T14:33:36.652Z,3.50
2019-04-04T14:36:08.353Z,2.17
2019-04-04T14:38:40.029Z,4.27
2019-04-04T14:41:12.048Z,2.70
2019-04-04T14:43:43.804Z,3.03
2019-04-04T14:46:15.605Z,2.03
2019-04-04T14:48:47.331Z,3.07
2019-04-04T14:51:19.532Z,1.62
2019-04-04T14:53:51.353Z,2.73
2019-04-04T14:56:23.414Z,1.22
2019-04-04T14:58:55.116Z,2.17
2019-04-04T15:01:27.424Z,1.87
2019-04-04T15:03:59.199Z,1.53
2019-04-04T15:06:30.968Z,1.20
2019-04-04T15:09:03.024Z,1.87
2019-04-04T15:11:35.529Z,1.83
2019-04-04T15:14:07.292Z,2.03
2019-04-04T15:16:39.049Z,2.00
2019-04-04T15:19:12.352Z,1.83
2019-04-04T15:21:44.083Z,2.13
2019-04-04T15:24:15.772Z,2.08
2019-04-04T15:26:47.006Z,1.97
2019-04-04T15:29:18.717Z,2.70
2019-04-04T15:31:50.508Z,2.03
2019-04-04T15:34:22.218Z,2.17
2019-04-04T15:36:53.941Z,3.27
2019-04-04T15:39:25.659Z,3.85
2019-04-04T15:41:57.371Z,2.77
2019-04-04T15:44:30.198Z,3.30
2019-04-04T15:47:01.914Z,4.67
2019-04-04T15:49:33.712Z,4.73
2019-04-04T15:52:05.579Z,2.87
2019-04-04T15:54:37.352Z,2.60
2019-04-04T15:57:09.042Z,4.33
2019-04-04T15:59:40.741Z,2.57
2019-04-04T16:02:12.510Z,4.73
2019-04-04T16:04:44.602Z,3.50
2019-04-04T16:07:16.465Z,4.13
2019-04-04T16:09:48.162Z,3.70
2019-04-04T16:12:19.865Z,2.80
2019-04-04T16:14:51.582Z,5.43
2019-04-04T16:17:23.772Z,4.33
2019-04-04T16:19:55.601Z,4.00
2019-04-04T16:22:27.423Z,5.33
2019-04-04T16:24:59.288Z,5.20
2019-04-04T16:27:31.130Z,4.73
2019-04-04T16:30:03.067Z,4.20
2019-04-04T16:32:34.830Z,3.40
2019-04-04T16:35:06.760Z,4.87
2019-04-04T16:37:38.827Z,4.40
2019-04-04T16:40:12.419Z,7.60
2019-04-04T16:42:44.322Z,3.98
2019-04-04T16:45:16.346Z,5.75
2019-04-04T16:47:48.128Z,4.73
2019-04-04T16:50:20.792Z,3.42
2019-04-04T16:52:52.557Z,5.83
2019-04-04T16:55:24.695Z,3.77
2019-04-04T16:57:56.409Z,5.53
2019-04-04T17:00:29.629Z,5.28
2019-04-04T17:03:01.324Z,3.03
2019-04-04T17:05:33.101Z,5.53
2019-04-04T17:08:05.202Z,5.17
2019-04-04T17:10:36.928Z,2.67
2019-04-04T17:13:10.082Z,4.83
2019-04-04T17:15:41.785Z,5.37
2019-04-04T17:18:14.168Z,4.40
2019-04-04T17:20:45.863Z,3.20
2019-04-04T17:23:17.728Z,4.60
2019-04-04T17:25:49.791Z,5.20
2019-04-04T17:28:21.571Z,4.40
2019-04-04T17:30:53.344Z,3.93
2019-04-04T17:33:25.289Z,4.40
2019-04-04T17:35:57.236Z,3.90
2019-04-04T17:38:29.653Z,4.23
2019-04-04T17:41:02.196Z,3.85
2019-04-04T17:43:34.557Z,3.13
2019-04-04T17:46:06.877Z,4.57
2019-04-04T17:48:39.052Z,4.00
2019-04-04T17:51:11.498Z,4.53
2019-04-04T17:53:44.666Z,6.33
2019-04-04T17:56:16.796Z,5.83
2019-04-04T17:58:48.680Z,6.93
2019-04-04T18:01:20.553Z,6.17
2019-04-04T18:03:52.442Z,5.47
2019-04-04T18:06:24.282Z,6.73
2019-04-04T18:08:56.141Z,5.97
2019-04-04T18:11:28.116Z,5.45
2019-04-04T18:14:00.089Z,6.23
2019-04-04T18:16:31.918Z,5.80
2019-04-04T18:19:03.980Z,5.27
2019-04-04T18:21:35.974Z,6.83
2019-04-04T18:24:07.945Z,7.53
2019-04-04T18:26:39.734Z,5.43
2019-04-04T18:29:12.298Z,6.00
2019-04-04T18:31:44.129Z,7.17
2019-04-04T18:34:16.026Z,9.63
2019-04-04T18:36:47.735Z,9.13
2019-04-04T18:39:19.638Z,20.70
2019-04-04T18:41:51.314Z,6.40
2019-04-04T18:44:23.086Z,9.08
2019-04-04T18:46:54.777Z,6.40
2019-04-04T18:49:26.608Z,6.97
2019-04-04T18:51:58.368Z,9.37
2019-04-04T18:54:30.082Z,7.30
2019-04-04T18:57:01.808Z,7.93
2019-04-04T18:59:33.541Z,9.37
2019-04-04T19:02:05.389Z,5.90
2019-04-04T19:04:37.514Z,4.90
2019-04-04T19:07:09.192Z,6.12
2019-04-04T19:09:40.921Z,6.97
2019-04-04T19:12:13.123Z,5.93
2019-04-04T19:14:44.889Z,7.23
2019-04-04T19:17:16.727Z,3.43
2019-04-04T19:19:48.456Z,7.33
2019-04-04T19:22:20.303Z,9.00
2019-04-04T19:24:52.087Z,9.90
2019-04-04T19:27:23.849Z,6.80
2019-04-04T19:29:55.559Z,6.47
2019-04-04T19:32:27.256Z,5.45
2019-04-04T19:34:59.030Z,6.57
2019-04-04T19:37:31.277Z,14.60
2019-04-04T19:40:03.051Z,10.17
2019-04-04T19:42:34.844Z,4.07
2019-04-04T19:45:08.355Z,8.57
2019-04-04T19:47:40.120Z,9.90
2019-04-04T19:50:13.350Z,9.83
2019-04-04T19:52:45.446Z,4.90
2019-04-04T19:55:17.236Z,9.85
2019-04-04T19:57:49.259Z,9.67
2019-04-04T20:00:22.969Z,5.70
2019-04-04T20:02:54.669Z,6.57
2019-04-04T20:05:26.864Z,10.32
2019-04-04T20:07:58.644Z,10.33
2019-04-04T20:10:30.920Z,5.23
2019-04-04T20:13:02.611Z,5.90
2019-04-04T20:15:34.329Z,10.30
2019-04-04T20:18:06.193Z,6.97
2019-04-04T20:20:37.976Z,7.23
2019-04-04T20:23:10.990Z,11.67
2019-04-04T20:25:43.087Z,11.43
2019-04-04T20:28:14.863Z,10.60
2019-04-04T20:30:46.599Z,9.47
2019-04-04T20:33:18.282Z,7.30
2019-04-04T20:35:50.018Z,8.40
2019-04-04T20:38:21.818Z,5.70
2019-04-04T20:40:53.533Z,9.53
2019-04-04T20:43:25.313Z,7.37
2019-04-04T20:45:57.118Z,13.87
2019-04-04T20:48:28.975Z,12.03
2019-04-04T20:51:01.795Z,7.43
2019-04-04T20:53:33.494Z,10.87
2019-04-04T20:56:05.211Z,11.95
2019-04-04T20:58:37.343Z,11.07
2019-04-04T21:01:09.111Z,9.13
2019-04-04T21:03:40.825Z,10.83
2019-04-04T21:06:12.528Z,7.70
2019-04-04T21:08:44.233Z,6.20
2019-04-04T21:11:15.960Z,10.48
2019-04-04T21:13:56.009Z,12.13
2019-04-04T21:16:22.179Z,12.95
2019-04-04T21:18:53.924Z,13.37
2019-04-04T21:21:26.054Z,8.00
2019-04-04T21:23:57.758Z,11.37
2019-04-04T21:26:29.561Z,13.00
2019-04-04T21:29:01.266Z,11.77
2019-04-04T21:31:32.971Z,9.63
2019-04-04T21:34:04.667Z,11.67
2019-04-04T21:36:36.443Z,10.53
2019-04-04T21:39:09.131Z,11.63
2019-04-04T21:41:40.853Z,13.30
2019-04-04T21:44:12.866Z,13.48
2019-04-04T21:46:44.571Z,12.07
2019-04-04T21:49:16.264Z,10.48
2019-04-04T21:51:48.243Z,13.40
2019-04-04T21:54:19.954Z,11.70
2019-04-04T21:56:51.654Z,5.90
2019-04-04T21:59:23.346Z,8.48
2019-04-04T22:01:55.194Z,13.05
2019-04-04T22:04:27.055Z,5.00
2019-04-04T22:06:59.145Z,12.10
2019-04-04T22:09:33.611Z,9.73
2019-04-04T22:12:04.434Z,12.53
2019-04-04T22:14:36.132Z,6.33
2019-04-04T22:17:08.345Z,6.77
2019-04-04T22:19:40.066Z,8.83
2019-04-04T22:22:12.267Z,14.63
2019-04-04T22:24:45.068Z,14.43
2019-04-04T22:27:16.818Z,12.47
2019-04-04T22:29:48.590Z,7.13
2019-04-04T22:32:20.365Z,14.00
2019-04-04T22:34:52.136Z,14.17
2019-04-04T22:37:23.846Z,7.90
2019-04-04T22:39:55.867Z,7.30
2019-04-04T22:42:27.595Z,9.87
2019-04-04T22:44:59.271Z,11.57
2019-04-04T22:47:30.976Z,11.90
2019-04-04T22:50:02.675Z,13.63
2019-04-04T22:52:34.409Z,11.97
2019-04-04T22:55:06.562Z,14.17
2019-04-04T22:57:38.337Z,5.97
2019-04-04T23:00:11.070Z,11.93
2019-04-04T23:02:43.638Z,13.83
2019-04-04T23:05:15.489Z,13.03
2019-04-04T23:07:47.199Z,13.57
2019-04-04T23:10:18.895Z,13.38
2019-04-04T23:12:50.941Z,12.70
2019-04-04T23:15:22.633Z,11.75
2019-04-04T23:17:54.435Z,15.55
2019-04-04T23:20:26.123Z,16.23
2019-04-04T23:22:57.828Z,14.93
2019-04-04T23:25:30.136Z,15.60
2019-04-04T23:28:01.850Z,13.53
2019-04-04T23:30:33.917Z,13.70
2019-04-04T23:33:06.334Z,16.62
2019-04-04T23:35:39.634Z,12.90
2019-04-04T23:38:12.320Z,16.30
2019-04-04T23:40:44.023Z,13.90
2019-04-04T23:43:15.733Z,14.95
2019-04-04T23:45:47.699Z,15.60
2019-04-04T23:48:19.422Z,14.28
2019-04-04T23:50:51.397Z,10.20
2019-04-04T23:53:23.116Z,14.13
2019-04-04T23:55:54.817Z,13.77
2019-04-04T23:58:26.524Z,13.38
